Latest Coastal Weather Observations for Lockhart River

IDQ60701

Issued at 4:01 pm EST Tuesday 1 September 2015 (issued every 10 minutes, with the page automatically refreshed every 10 minutes)

About coastal observations | Map of coastal stations | Coastal observations for QLD | Marine services | Other Formats
Station Details ID: 028008 Name: LOCKHART RIVER AIRPORT Lat: -12.79 Lon: 143.30 Height: 18.5 m
Data from the previous 72 hours. | See also: Recent months at Lockhart River
Date/Time
EST
Temp

°C
Wind Pressure Rain
since 9am
mm
Weather Cloud Vis
km
Sea
Height
m
Swell
Dir
 
Speed
knots
Gust
knots
hPa Trend Height
m
Period
s
Dir
01/04:00pm 27.1 E 10 15 1013.0 - 0.0 - - - - - - -
01/03:30pm 27.5 E 10 15 1012.9 - 0.0 - - - - - - -
01/03:00pm 27.8 ENE 8 13 1013.2 - 0.0 - - - - - - -
01/02:30pm 27.8 ENE 10 13 1013.5 - 0.0 - - - - - - -
01/02:00pm 27.7 E 9 14 1013.9 - 0.0 - Partly cloudy - - - - -
01/01:30pm 27.6 E 8 13 1014.4 - 0.0 - Partly cloudy - - - - -
01/01:00pm 27.4 E 11 17 1014.7 - 0.0 - Partly cloudy - - - - -
01/12:30pm 27.9 ESE 11 15 1015.1 - 0.0 - Partly cloudy - - - - -
01/12:00pm 26.8 E 10 13 1015.5 - 0.0 - Partly cloudy - - - - -
01/11:30am 27.2 E 10 15 1016.1 - 0.0 - Partly cloudy - - - - -
01/11:00am 27.4 NE 10 12 1016.4 - 0.0 - Partly cloudy - - - - -
01/10:30am 26.5 E 9 13 1016.8 - 0.0 - Partly cloudy - - - - -
01/10:00am 25.8 ESE 7 9 1017.0 - 0.0 - Partly cloudy - - - - -
01/09:42am 25.8 E 7 10 1016.9 - 0.0 - Partly cloudy - - - - -
01/09:30am 25.9 E 8 10 1016.7 - 0.0 - Partly cloudy - - - - -
01/09:07am 25.1 SSE 6 8 1016.5 - 0.0 - Partly cloudy - - - - -
01/09:00am 25.4 SSE 5 7 1016.4 - 0.0 Fine Partly cloudy 25 - - - -
01/08:30am 24.0 S 2 6 1016.3 - 0.0 - - - - - - -
01/08:00am 22.3 CALM 0 0 1016.0 - 0.0 - - - - - - -
01/07:30am 21.2 NW 2 3 1015.7 - 0.0 - - - - - - -
01/07:00am 20.5 CALM 0 0 1015.2 - 0.0 - Partly cloudy - - - - -
01/06:30am 20.3 CALM 0 0 1014.8 - 0.0 - Cloudy - - - - -
01/06:00am 20.1 CALM 0 0 1014.5 - 0.0 - Partly cloudy - - - - -
01/05:30am 20.6 CALM 0 0 1014.3 - 0.0 - Partly cloudy - - - - -
01/05:07am 20.6 CALM 0 0 1014.2 - 0.0 - Partly cloudy - - - - -
01/05:00am 20.6 CALM 0 0 1014.3 - 0.0 - Partly cloudy - - - - -
01/04:53am 20.7 CALM 0 0 1014.2 - 0.0 - Partly cloudy - - - - -
01/04:46am 20.7 CALM 0 0 1014.2 - 0.0 - Partly cloudy - - - - -
01/04:35am 20.7 CALM 0 0 1014.2 - 0.0 - Partly cloudy - - - - -
01/04:30am 20.6 CALM 0 0 1014.1 - 0.0 - Partly cloudy - - - - -
01/04:00am 20.3 CALM 0 0 1014.1 - 0.0 - Partly cloudy - - - - -
01/03:30am 20.2 CALM 0 0 1014.1 - 0.0 - Partly cloudy - - - - -
01/03:00am 20.4 CALM 0 0 1014.0 - 0.0 - Partly cloudy - - - - -
01/02:30am 20.2 CALM 0 0 1014.3 - 0.0 - Partly cloudy - - - - -
01/02:23am 20.0 CALM 0 0 1014.4 - 0.0 - Partly cloudy - - - - -
01/02:06am 20.0 CALM 0 0 1014.5 - 0.0 - Partly cloudy - - - - -
01/02:00am 20.0 CALM 0 0 1014.5 - 0.0 - Partly cloudy - - - - -
01/01:30am 20.4 CALM 0 0 1014.7 - 0.0 - Partly cloudy - - - - -
01/01:00am 20.4 NW 2 3 1014.9 - 0.0 - Partly cloudy - - - - -
01/12:30am 20.3 CALM 0 0 1015.1 - 0.0 - Partly cloudy - - - - -
01/12:00am 20.2 WNW 1 4 1015.1 - 0.0 - Partly cloudy - - - - -
 
Date/Time
EST
Temp

°C
Wind Pressure Rain
since 9am
mm
Weather Cloud Vis
km
Sea
Height
m
Swell
Dir
 
Speed
knots
Gust
knots
hPa Trend Height
m
Period
s
Dir
31/11:51pm 20.3 N 1 4 1015.3 - 0.0 - Partly cloudy - - - - -
31/11:37pm 20.4 CALM 0 0 1015.4 - 0.0 - Partly cloudy - - - - -
31/11:30pm 20.4 CALM 0 0 1015.4 - 0.0 - Partly cloudy - - - - -
31/11:00pm 20.4 NNW 2 4 1015.4 - 0.0 - Partly cloudy - - - - -
31/10:30pm 20.5 CALM 0 0 1015.0 - 0.0 - Partly cloudy - - - - -
31/10:29pm 20.5 CALM 0 0 1015.0 - 0.0 - Partly cloudy - - - - -
31/10:00pm 20.8 NW 2 4 1015.0 - 0.0 - Cloudy - - - - -
31/09:30pm 20.6 WNW 3 4 1014.9 - 0.0 - Partly cloudy - - - - -
31/09:02pm 20.6 CALM 0 0 1014.7 - 0.0 - Partly cloudy - - - - -
31/09:01pm 20.6 CALM 0 0 1014.7 - 0.0 - Partly cloudy - - - - -
31/09:00pm 20.6 CALM 0 0 1014.6 - 0.0 - Partly cloudy - - - - -
31/08:48pm 20.4 CALM 0 0 1014.6 - 0.0 - Partly cloudy - - - - -
31/08:30pm 20.7 CALM 0 0 1014.5 - 0.0 - - - - - - -
31/08:00pm 21.2 CALM 0 0 1014.3 - 0.0 - - - - - - -
31/07:30pm 21.6 CALM 0 0 1013.9 - 0.0 - - - - - - -
31/07:00pm 22.6 CALM 0 3 1013.7 - 0.0 - - - - - - -
31/06:30pm 24.2 E 3 5 1013.5 - 0.0 - - - - - - -
31/06:00pm 24.9 E 6 8 1013.2 - 0.0 - - - - - - -
31/05:30pm 25.6 ENE 6 8 1013.2 - 0.0 - - - - - - -
31/05:00pm 26.2 E 8 13 1012.9 - 0.0 - - - - - - -
31/04:30pm 26.4 ENE 8 11 1012.9 - 0.0 - - - - - - -
31/04:00pm 27.5 E 8 14 1012.8 - 0.0 - - - - - - -
31/03:30pm 27.0 E 9 14 1013.0 - 0.0 - - - - - - -
31/03:00pm 27.9 E 9 12 1013.2 - 0.0 - - - - - - -
31/02:30pm 27.4 E 9 13 1013.6 - 0.0 - Partly cloudy - - - - -
31/02:00pm 27.3 E 9 12 1013.9 - 0.0 - Partly cloudy - - - - -
31/01:30pm 26.9 E 9 13 1014.4 - 0.0 - Cloudy - - - - -
31/01:00pm 27.3 E 9 15 1014.6 - 0.0 - Cloudy - - - - -
31/12:30pm 27.8 E 9 13 1014.9 - 0.0 - Partly cloudy - - - - -
31/12:00pm 27.5 E 9 14 1015.1 - 0.0 - Partly cloudy - - - - -
31/11:30am 28.3 ESE 9 13 1015.8 - 0.0 - Partly cloudy - - - - -
31/11:00am 27.2 ENE 7 10 1016.2 - 0.0 - Partly cloudy - - - - -
31/10:30am 26.2 E 6 8 1016.5 - 0.0 - Partly cloudy - - - - -
31/10:00am 25.9 SSE 5 8 1016.6 - 0.0 - Partly cloudy - - - - -
31/09:30am 25.1 S 4 7 1016.5 - 0.0 - Partly cloudy - - - - -
31/09:00am 24.3 S 3 5 1016.4 - 0.0 Fine Partly cloudy 30 - - - -
31/08:30am 22.5 NNW 1 4 1016.0 - 0.0 - - - - - - -
31/08:00am 20.9 WNW 3 3 1015.8 - 0.0 - - - - - - -
31/07:30am 19.5 NW 2 4 1015.5 - 0.0 - - - - - - -
31/07:00am 18.3 CALM 0 0 1015.3 - 0.0 - Partly cloudy - - - - -
31/06:30am 18.2 CALM 0 0 1014.9 - 0.0 - Partly cloudy - - - - -
31/06:00am 18.4 CALM 0 0 1014.5 - 0.0 - Partly cloudy - - - - -
31/05:51am 18.7 CALM 0 0 1014.5 - 0.0 - Partly cloudy - - - - -
31/05:30am 19.0 CALM 0 0 1014.3 - 0.0 - Partly cloudy - - - - -
31/05:22am 19.2 CALM 0 0 1014.2 - 0.0 - Partly cloudy - - - - -
31/05:00am 19.9 CALM 0 0 1014.1 - 0.0 - Partly cloudy - - - - -
31/04:30am 19.7 CALM 0 0 1014.1 - 0.0 - Cloudy - - - - -
31/04:00am 19.9 CALM 0 0 1014.0 - 0.0 - Partly cloudy - - - - -
31/03:47am 19.7 CALM 0 0 1014.1 - 0.0 - Partly cloudy - - - - -
31/03:30am 19.5 CALM 0 0 1014.3 - 0.0 - Partly cloudy - - - - -
31/03:00am 19.9 CALM 0 0 1014.4 - 0.0 - Partly cloudy - - - - -
31/02:57am 19.8 CALM 0 0 1014.5 - 0.0 - Partly cloudy - - - - -
31/02:30am 19.2 CALM 0 0 1014.6 - 0.0 - Partly cloudy - - - - -
31/02:00am 19.0 CALM 0 0 1014.9 - 0.0 - Partly cloudy - - - - -
31/01:30am 19.1 CALM 0 0 1015.1 - 0.0 - Partly cloudy - - - - -
31/01:00am 19.5 CALM 0 0 1015.2 - 0.0 - Partly cloudy - - - - -
31/12:33am 19.9 CALM 0 0 1015.3 - 0.0 - Partly cloudy - - - - -
31/12:30am 19.9 CALM 0 0 1015.4 - 0.0 - Partly cloudy - - - - -
31/12:00am 19.9 NNW 1 4 1015.4 - 0.0 - Partly cloudy - - - - -
 
Date/Time
EST
Temp

°C
Wind Pressure Rain
since 9am
mm
Weather Cloud Vis
km
Sea
Height
m
Swell
Dir
 
Speed
knots
Gust
knots
hPa Trend Height
m
Period
s
Dir
30/11:30pm 19.9 CALM 0 0 1015.5 - 0.0 - Partly cloudy - - - - -
30/11:00pm 20.2 CALM 0 0 1015.5 - 0.0 - Partly cloudy - - - - -
30/10:30pm 20.4 CALM 0 0 1015.6 - 0.0 - Cloudy - - - - -
30/10:00pm 20.4 CALM 0 0 1015.6 - 0.0 - Partly cloudy - - - - -
30/09:30pm 20.3 CALM 0 0 1015.5 - 0.0 - Partly cloudy - - - - -
30/09:00pm 20.2 CALM 0 0 1015.4 - 0.0 - Partly cloudy - - - - -
30/08:56pm 20.2 CALM 0 0 1015.4 - 0.0 - Partly cloudy - - - - -
30/08:30pm 20.5 CALM 0 0 1015.3 - 0.0 - - - - - - -
30/08:00pm 21.1 CALM 0 0 1014.9 - 0.0 - - - - - - -
30/07:30pm 21.8 CALM 0 3 1014.7 - 0.0 - - - - - - -
30/07:00pm 23.4 E 3 4 1014.4 - 0.0 - - - - - - -
30/06:30pm 24.1 E 5 7 1014.1 - 0.0 - - - - - - -
30/06:00pm 24.9 E 7 9 1013.8 - 0.0 - - - - - - -
30/05:30pm 25.6 E 8 11 1013.8 - 0.0 - - - - - - -
30/05:00pm 26.1 E 9 12 1013.6 - 0.0 - - - - - - -
30/04:30pm 26.7 E 8 11 1013.5 - 0.0 - - - - - - -
30/04:00pm 27.2 E 9 12 1013.5 - 0.0 - - - - - - -
30/03:30pm 27.5 E 8 12 1013.5 - 0.0 - - - - - - -
30/03:00pm 27.7 E 8 13 1013.5 - 0.0 - - - - - - -
30/02:30pm 27.5 ENE 9 13 1013.9 - 0.0 - - - - - - -
30/02:00pm 27.5 E 9 13 1014.1 - 0.0 - - - - - - -
30/01:30pm 27.6 NE 9 13 1014.5 - 0.0 - - - - - - -
30/01:00pm 27.6 E 9 13 1015.0 - 0.0 - Partly cloudy - - - - -
30/12:30pm 27.3 E 9 13 1015.5 - 0.0 - Partly cloudy - - - - -
30/12:00pm 27.1 ENE 9 14 1015.8 - 0.0 - Partly cloudy - - - - -
30/11:30am 27.5 E 8 13 1016.4 - 0.0 - Partly cloudy - - - - -
30/11:00am 27.3 E 8 10 1016.9 - 0.0 - Partly cloudy - - - - -
30/10:30am 26.6 E 8 11 1017.2 - 0.0 - Partly cloudy - - - - -
30/10:00am 26.5 E 7 12 1017.3 - 0.0 - Partly cloudy - - - - -
30/09:40am 26.1 E 7 12 1017.3 - 0.0 - Partly cloudy - - - - -
30/09:30am 25.5 ESE 6 9 1017.2 - 0.0 - Partly cloudy - - - - -
30/09:21am 25.2 SE 6 9 1017.1 - 0.0 - Partly cloudy - - - - -
30/09:00am 24.7 SE 6 9 1016.9 - 0.0 Fine Partly cloudy 20 - - - -
30/08:30am 22.7 CALM 0 0 1016.8 - 0.0 - - - - - - -
30/08:00am 21.0 CALM 0 0 1016.5 - 0.0 - Partly cloudy - - - - -
30/07:42am 19.7 CALM 0 0 1016.3 - 0.0 - Partly cloudy - - - - -
30/07:30am 19.1 CALM 0 0 1016.2 - 0.0 - Partly cloudy - - - - -
30/07:27am 18.9 CALM 0 0 1016.1 - 0.0 - Partly cloudy - - - - -
30/07:00am 18.0 CALM 0 0 1015.8 - 0.0 - Partly cloudy - - - - -
30/06:30am 17.8 CALM 0 0 1015.5 - 0.0 - Partly cloudy - - - - -
30/06:00am 18.3 CALM 0 0 1015.1 - 0.0 - Partly cloudy - - - - -
30/05:30am 18.5 CALM 0 0 1015.0 - 0.0 - Partly cloudy - - - - -
30/05:21am 18.6 CALM 0 0 1014.9 - 0.0 - Partly cloudy - - - - -
30/05:00am 18.8 CALM 0 0 1014.7 - 0.0 - Partly cloudy - - - - -
30/04:54am 18.7 CALM 0 0 1014.6 - 0.0 - Partly cloudy - - - - -
30/04:30am 18.6 CALM 0 0 1014.6 - 0.0 - Partly cloudy - - - - -
30/04:00am 18.5 CALM 0 0 1014.5 - 0.0 - Partly cloudy - - - - -
30/03:30am 18.7 CALM 0 0 1014.6 - 0.0 - Partly cloudy - - - - -
30/03:00am 18.7 CALM 0 0 1014.8 - 0.0 - Partly cloudy - - - - -
30/02:30am 18.7 CALM 0 0 1015.0 - 0.0 - Partly cloudy - - - - -
30/02:00am 19.1 CALM 0 0 1015.3 - 0.0 - Partly cloudy - - - - -
30/01:30am 19.1 CALM 0 0 1015.6 - 0.0 - Partly cloudy - - - - -
30/01:00am 19.2 CALM 0 0 1015.8 - 0.0 - Partly cloudy - - - - -
30/12:30am 19.2 CALM 0 0 1016.0 - 0.0 - Partly cloudy - - - - -
30/12:00am 19.5 CALM 0 0 1016.1 - 0.0 - Partly cloudy - - - - -
 
Date/Time
EST
Temp

°C
Wind Pressure Rain
since 9am
mm
Weather Cloud Vis
km
Sea
Height
m
Swell
Dir
 
Speed
knots
Gust
knots
hPa Trend Height
m
Period
s
Dir
29/11:30pm 19.3 CALM 0 0 1016.4 - 0.0 - Partly cloudy - - - - -
29/11:00pm 19.5 CALM 0 0 1016.4 - 0.0 - Partly cloudy - - - - -
29/10:30pm 20.0 CALM 0 0 1016.5 - 0.0 - Partly cloudy - - - - -
29/10:00pm 19.8 CALM 0 0 1016.5 - 0.0 - Partly cloudy - - - - -
29/09:30pm 19.9 CALM 0 0 1016.5 - 0.0 - Partly cloudy - - - - -
29/09:00pm 20.2 CALM 0 0 1016.3 - 0.0 - Partly cloudy - - - - -
29/08:30pm 21.1 SSE 1 3 1016.2 - 0.0 - Partly cloudy - - - - -
29/08:00pm 22.4 SE 3 5 1015.9 - 0.0 - - - - - - -
29/07:30pm 23.1 SE 4 5 1015.5 - 0.0 - - - - - - -
29/07:00pm 23.7 ESE 5 7 1015.2 - 0.0 - Partly cloudy - - - - -
29/06:30pm 24.1 ESE 7 10 1014.9 - 0.0 - Partly cloudy - - - - -
29/06:00pm 25.0 ESE 9 12 1014.7 - 0.0 - Partly cloudy - - - - -
29/05:30pm 25.4 ESE 10 15 1014.6 - 0.0 - - - - - - -
29/05:00pm 25.9 ESE 10 16 1014.6 - 0.0 - Partly cloudy - - - - -
29/04:30pm 26.6 ESE 11 16 1014.3 - 0.0 - - - - - - -

Other Formats:

Comma delimited format used in spreadsheet applications
http://www.bom.gov.au/fwo/IDQ60701/IDQ60701.94186.axf

JavaScript Object Notation format (JSON) in row-major order
http://www.bom.gov.au/fwo/IDQ60701/IDQ60701.94186.json